createdAt,value
2022-10-19T00:01:09.866Z,3.63
2022-10-19T00:03:38.293Z,3.33
2022-10-19T00:06:16.606Z,3.80
2022-10-19T00:08:45.935Z,3.20
2022-10-19T00:11:14.410Z,3.27
2022-10-19T00:13:42.716Z,3.43
2022-10-19T00:16:12.321Z,3.23
2022-10-19T00:18:40.780Z,2.93
2022-10-19T00:21:10.293Z,3.43
2022-10-19T00:23:39.772Z,3.17
2022-10-19T00:26:08.744Z,2.67
2022-10-19T00:28:37.304Z,3.20
2022-10-19T00:31:06.289Z,2.53
2022-10-19T00:33:34.764Z,2.80
2022-10-19T00:36:03.407Z,2.60
2022-10-19T00:38:31.851Z,2.80
2022-10-19T00:41:01.372Z,2.53
2022-10-19T00:43:32.310Z,2.97
2022-10-19T00:46:00.629Z,3.03
2022-10-19T00:48:31.645Z,2.60
2022-10-19T00:51:01.731Z,2.93
2022-10-19T00:53:31.465Z,3.37
2022-10-19T00:56:07.001Z,3.30
2022-10-19T00:58:35.600Z,3.17
2022-10-19T01:01:07.331Z,2.83
2022-10-19T01:03:36.037Z,3.03
2022-10-19T01:06:04.749Z,2.80
2022-10-19T01:08:32.890Z,2.83
2022-10-19T01:11:15.567Z,3.07
2022-10-19T01:13:48.563Z,3.10
2022-10-19T01:16:25.274Z,3.03
2022-10-19T01:18:59.597Z,2.97
2022-10-19T01:21:32.065Z,2.90
2022-10-19T01:24:28.911Z,3.00
2022-10-19T01:27:31.324Z,2.10
2022-10-19T01:30:09.906Z,2.33
2022-10-19T01:32:50.437Z,1.70
2022-10-19T01:35:27.208Z,2.07
2022-10-19T01:38:04.043Z,2.40
2022-10-19T01:40:40.102Z,2.00
2022-10-19T01:43:15.390Z,2.20
2022-10-19T01:45:49.905Z,2.30
2022-10-19T01:48:23.132Z,2.70
2022-10-19T01:50:56.900Z,2.33
2022-10-19T01:53:27.064Z,2.57
2022-10-19T01:55:56.226Z,2.87
2022-10-19T01:58:28.837Z,2.37
2022-10-19T02:01:03.220Z,2.20
2022-10-19T02:03:31.812Z,2.40
2022-10-19T02:06:00.315Z,2.37
2022-10-19T02:08:31.489Z,2.27
2022-10-19T02:11:01.003Z,2.37
2022-10-19T02:13:30.357Z,2.20
2022-10-19T02:16:02.505Z,2.47
2022-10-19T02:18:35.293Z,3.10
2022-10-19T02:21:05.432Z,2.83
2022-10-19T02:23:34.203Z,2.60
2022-10-19T02:26:02.593Z,3.20
2022-10-19T02:28:31.830Z,2.83
2022-10-19T02:31:01.768Z,2.43
2022-10-19T02:33:30.829Z,2.43
2022-10-19T02:35:59.674Z,2.60
2022-10-19T02:38:28.463Z,2.60
2022-10-19T02:41:05.346Z,2.40
2022-10-19T02:43:35.303Z,2.80
2022-10-19T02:46:11.059Z,2.70
2022-10-19T02:48:40.318Z,2.70
2022-10-19T02:51:08.664Z,2.80
2022-10-19T02:53:36.821Z,2.63
2022-10-19T02:56:05.246Z,2.83
2022-10-19T02:58:33.567Z,2.47
2022-10-19T03:01:01.609Z,2.70
2022-10-19T03:03:31.370Z,2.60
2022-10-19T03:05:59.685Z,2.23
2022-10-19T03:08:28.034Z,2.40
2022-10-19T03:10:56.335Z,2.40
2022-10-19T03:13:24.770Z,2.70
2022-10-19T03:15:53.994Z,2.43
2022-10-19T03:18:25.178Z,2.60
2022-10-19T03:21:03.126Z,2.43
2022-10-19T03:23:33.289Z,2.23
2022-10-19T03:26:01.615Z,2.50
2022-10-19T03:28:30.036Z,3.07
2022-10-19T03:30:58.864Z,3.33
2022-10-19T03:33:27.123Z,2.63
2022-10-19T03:36:15.952Z,2.73
2022-10-19T03:38:44.016Z,2.63
2022-10-19T03:41:12.435Z,2.37
2022-10-19T03:43:42.521Z,2.20
2022-10-19T03:46:10.963Z,2.23
2022-10-19T03:48:39.085Z,3.27
2022-10-19T03:51:09.953Z,3.03
2022-10-19T03:53:40.677Z,3.63
2022-10-19T03:56:13.047Z,3.13
2022-10-19T03:58:42.256Z,2.90
2022-10-19T04:01:11.557Z,2.73
2022-10-19T04:03:40.000Z,2.57
2022-10-19T04:06:14.002Z,2.60
2022-10-19T04:08:50.064Z,2.80
2022-10-19T04:11:20.182Z,1.93
2022-10-19T04:13:50.463Z,2.00
2022-10-19T04:16:21.788Z,1.53
2022-10-19T04:18:50.160Z,2.23
2022-10-19T04:21:24.653Z,2.10
2022-10-19T04:23:55.541Z,2.13
2022-10-19T04:26:23.928Z,1.90
2022-10-19T04:28:52.082Z,1.77
2022-10-19T04:31:20.547Z,1.70
2022-10-19T04:33:48.895Z,1.80
2022-10-19T04:36:18.385Z,2.20
2022-10-19T04:38:46.885Z,2.13
2022-10-19T04:41:21.286Z,1.70
2022-10-19T04:43:50.400Z,2.30
2022-10-19T04:46:19.918Z,2.33
2022-10-19T04:48:49.112Z,2.20
2022-10-19T04:51:17.778Z,2.10
2022-10-19T04:53:46.192Z,2.23
2022-10-19T04:56:16.174Z,2.03
2022-10-19T04:58:45.904Z,2.70
2022-10-19T05:01:16.302Z,2.27
2022-10-19T05:03:44.915Z,2.20
2022-10-19T05:06:13.856Z,1.97
2022-10-19T05:08:42.551Z,2.30
2022-10-19T05:11:12.639Z,1.77
2022-10-19T05:13:40.940Z,1.77
2022-10-19T05:16:14.046Z,1.57
2022-10-19T05:18:42.416Z,1.40
2022-10-19T05:21:13.474Z,1.47
2022-10-19T05:23:42.364Z,1.50
2022-10-19T05:26:11.957Z,1.40
2022-10-19T05:28:40.664Z,1.53
2022-10-19T05:31:12.134Z,1.50
2022-10-19T05:33:41.173Z,1.40
2022-10-19T05:36:16.792Z,1.90
2022-10-19T05:38:45.189Z,1.40
2022-10-19T05:41:13.802Z,1.83
2022-10-19T05:43:42.755Z,1.37
2022-10-19T05:46:13.813Z,1.70
2022-10-19T05:48:42.569Z,2.10
2022-10-19T05:51:13.683Z,2.30
2022-10-19T05:53:42.311Z,2.70
2022-10-19T05:56:14.880Z,2.67
2022-10-19T05:58:43.346Z,2.53
2022-10-19T06:01:14.311Z,2.50
2022-10-19T06:03:43.175Z,2.57
2022-10-19T06:06:11.516Z,2.80
2022-10-19T06:08:40.407Z,2.53
2022-10-19T06:11:10.467Z,2.40
2022-10-19T06:13:39.133Z,2.60
2022-10-19T06:16:08.930Z,2.40
2022-10-19T06:18:39.265Z,2.90
2022-10-19T06:21:09.595Z,3.17
2022-10-19T06:23:37.922Z,2.80
2022-10-19T06:26:09.732Z,3.17
2022-10-19T06:28:39.018Z,2.87
2022-10-19T06:31:09.237Z,3.70
2022-10-19T06:33:41.003Z,3.57
2022-10-19T06:36:10.438Z,3.13
2022-10-19T06:38:38.791Z,3.30
2022-10-19T06:41:07.489Z,3.47
2022-10-19T06:43:36.382Z,3.00
2022-10-19T06:46:06.743Z,3.77
2022-10-19T06:48:35.208Z,3.50
2022-10-19T06:51:07.562Z,4.13
2022-10-19T06:53:36.272Z,4.13
2022-10-19T06:56:06.367Z,4.50
2022-10-19T06:58:37.052Z,4.00
2022-10-19T07:01:08.337Z,3.90
2022-10-19T07:03:38.719Z,4.57
2022-10-19T07:06:09.882Z,4.17
2022-10-19T07:08:39.121Z,5.50
2022-10-19T07:11:10.030Z,5.23
2022-10-19T07:13:38.946Z,5.43
2022-10-19T07:16:15.906Z,5.20
2022-10-19T07:18:49.554Z,5.83
2022-10-19T07:21:21.754Z,6.40
2022-10-19T07:23:51.262Z,8.40
2022-10-19T07:26:23.569Z,9.57
2022-10-19T07:28:52.415Z,9.13
2022-10-19T07:31:23.203Z,9.43
2022-10-19T07:33:53.754Z,10.50
2022-10-19T07:36:23.747Z,9.37
2022-10-19T07:38:52.041Z,8.77
2022-10-19T07:41:22.322Z,10.77
2022-10-19T07:43:52.786Z,10.77
2022-10-19T07:46:23.497Z,8.80
2022-10-19T07:48:52.168Z,11.27
2022-10-19T07:51:22.618Z,9.80
2022-10-19T07:53:51.030Z,10.33
2022-10-19T07:56:20.707Z,10.50
2022-10-19T07:58:50.141Z,10.77
2022-10-19T08:01:20.247Z,9.87
2022-10-19T08:06:38.685Z,11.37
2022-10-19T08:09:07.131Z,10.70
2022-10-19T08:11:36.656Z,11.77
2022-10-19T08:14:05.255Z,11.93
2022-10-19T08:16:36.664Z,11.70
2022-10-19T08:19:07.118Z,10.23
2022-10-19T08:21:37.060Z,9.50
2022-10-19T08:24:07.713Z,9.37
2022-10-19T08:26:38.092Z,11.23
2022-10-19T08:29:08.833Z,11.00
2022-10-19T08:31:37.117Z,10.97
2022-10-19T08:34:05.430Z,11.10
2022-10-19T08:36:35.574Z,10.73
2022-10-19T08:39:04.957Z,9.77
2022-10-19T08:41:43.551Z,10.07
2022-10-19T08:44:26.760Z,10.20
2022-10-19T08:47:07.695Z,10.43
2022-10-19T08:49:36.911Z,10.73
2022-10-19T08:52:09.070Z,10.20
2022-10-19T08:54:43.241Z,10.20
2022-10-19T08:57:24.378Z,10.20
2022-10-19T08:59:58.339Z,11.50
2022-10-19T09:02:48.745Z,11.60
2022-10-19T09:05:25.102Z,11.33
2022-10-19T09:07:55.062Z,12.53
2022-10-19T09:10:26.678Z,14.80
2022-10-19T09:12:59.935Z,17.73
2022-10-19T09:15:33.790Z,21.20
2022-10-19T09:18:03.176Z,25.02
2022-10-19T09:20:36.782Z,22.25
2022-10-19T09:23:13.776Z,23.20
2022-10-19T09:25:42.487Z,29.05
2022-10-19T09:28:31.437Z,28.20
2022-10-19T09:31:05.155Z,28.98
2022-10-19T09:33:38.245Z,30.27
2022-10-19T09:36:09.169Z,27.02
2022-10-19T09:38:38.564Z,22.85
2022-10-19T09:41:18.159Z,25.58
2022-10-19T09:43:53.673Z,24.73
2022-10-19T09:46:38.908Z,22.00
2022-10-19T09:49:07.596Z,20.88
2022-10-19T09:51:50.414Z,17.42
2022-10-19T09:54:32.826Z,14.82
2022-10-19T09:57:01.178Z,13.23
2022-10-19T09:59:35.357Z,9.57
2022-10-19T10:02:17.101Z,7.22
2022-10-19T10:04:48.016Z,7.25
2022-10-19T10:07:19.077Z,8.65
2022-10-19T10:09:47.455Z,7.30
2022-10-19T10:12:17.280Z,7.40
2022-10-19T10:14:47.239Z,7.22
2022-10-19T10:17:18.977Z,6.80
2022-10-19T10:20:05.979Z,8.05
2022-10-19T10:22:36.174Z,9.90
2022-10-19T10:25:13.918Z,9.82
2022-10-19T10:27:41.963Z,12.35
2022-10-19T10:30:19.373Z,11.10
2022-10-19T10:32:50.754Z,10.20
2022-10-19T10:35:20.562Z,13.25
2022-10-19T10:37:48.962Z,10.38
2022-10-19T10:40:23.632Z,11.85
2022-10-19T10:42:53.651Z,11.95
2022-10-19T10:45:27.304Z,12.52
2022-10-19T10:47:55.770Z,12.55
2022-10-19T10:50:26.752Z,12.93
2022-10-19T10:53:03.091Z,12.80
2022-10-19T10:55:32.538Z,15.73
2022-10-19T10:58:12.985Z,15.20
2022-10-19T11:00:43.929Z,13.52
2022-10-19T11:03:17.617Z,15.23
2022-10-19T11:05:48.775Z,17.95
2022-10-19T11:08:23.142Z,16.58
2022-10-19T11:10:56.714Z,14.80
2022-10-19T11:13:30.417Z,12.45
2022-10-19T11:16:01.848Z,12.32
2022-10-19T11:18:33.293Z,13.52
2022-10-19T11:21:09.896Z,14.82
2022-10-19T11:23:49.035Z,12.55
2022-10-19T11:26:29.798Z,12.07
2022-10-19T11:29:13.446Z,10.20
2022-10-19T11:31:48.088Z,10.82
2022-10-19T11:34:32.739Z,10.70
2022-10-19T11:37:07.118Z,11.90
2022-10-19T11:39:52.154Z,10.10
2022-10-19T11:42:31.429Z,9.77
2022-10-19T11:45:06.840Z,10.27
2022-10-19T11:47:55.328Z,9.20
2022-10-19T11:50:34.808Z,9.23
2022-10-19T11:53:13.400Z,8.65
2022-10-19T11:55:51.843Z,9.75
2022-10-19T11:58:39.581Z,9.50
2022-10-19T12:01:17.844Z,7.97
2022-10-19T12:04:04.825Z,8.00
2022-10-19T12:06:40.759Z,7.35
2022-10-19T12:09:27.280Z,7.55
2022-10-19T12:12:10.801Z,7.00
2022-10-19T12:14:42.530Z,6.03
2022-10-19T12:17:15.434Z,6.93
2022-10-19T12:19:48.816Z,7.57
2022-10-19T12:22:19.745Z,7.25
2022-10-19T12:24:48.508Z,7.57
2022-10-19T12:27:19.544Z,7.63
2022-10-19T12:29:50.627Z,9.43
2022-10-19T12:32:24.101Z,9.32
2022-10-19T12:35:00.315Z,8.63
2022-10-19T12:37:37.664Z,7.38
2022-10-19T12:40:12.835Z,9.00
2022-10-19T12:42:51.918Z,7.32
2022-10-19T12:45:30.837Z,8.82
2022-10-19T12:48:24.667Z,6.85
2022-10-19T12:51:20.983Z,6.43
2022-10-19T12:53:50.207Z,7.57
2022-10-19T12:56:22.217Z,6.53
2022-10-19T12:58:56.585Z,6.55
2022-10-19T13:01:28.344Z,6.60
2022-10-19T13:04:10.237Z,6.70
2022-10-19T13:06:42.764Z,6.82
2022-10-19T13:09:24.102Z,5.53
2022-10-19T13:12:26.036Z,6.13
2022-10-19T13:14:55.457Z,5.75
2022-10-19T13:17:45.604Z,5.65
2022-10-19T13:20:47.262Z,6.38
2022-10-19T13:23:42.858Z,5.93
2022-10-19T13:26:34.052Z,5.00
2022-10-19T13:29:02.162Z,5.47
2022-10-19T13:31:32.988Z,5.35
2022-10-19T13:34:01.141Z,5.78
2022-10-19T13:36:29.426Z,5.00
2022-10-19T13:39:08.570Z,5.15
2022-10-19T13:41:49.096Z,4.95
2022-10-19T13:44:28.925Z,5.18
2022-10-19T13:47:18.908Z,5.15
2022-10-19T13:50:03.877Z,4.93
2022-10-19T13:52:51.062Z,5.53
2022-10-19T13:55:47.230Z,5.63
2022-10-19T13:58:40.641Z,5.50
2022-10-19T14:01:19.934Z,7.30
2022-10-19T14:04:17.378Z,5.32
2022-10-19T14:06:48.453Z,6.72
2022-10-19T14:09:38.393Z,6.20
2022-10-19T14:12:15.264Z,6.47
2022-10-19T14:14:45.753Z,6.18
2022-10-19T14:17:19.709Z,6.38
2022-10-19T14:19:50.511Z,6.20
2022-10-19T14:22:21.545Z,6.53
2022-10-19T14:24:49.617Z,5.32
2022-10-19T14:27:24.080Z,5.38
2022-10-19T14:29:53.721Z,5.57
2022-10-19T14:32:24.654Z,5.40
2022-10-19T14:34:53.571Z,5.15
2022-10-19T14:37:24.680Z,5.45
2022-10-19T14:40:05.073Z,6.32
2022-10-19T14:42:46.090Z,4.85
2022-10-19T14:45:17.708Z,5.07
2022-10-19T14:47:57.979Z,5.07
2022-10-19T14:50:32.832Z,5.65
2022-10-19T14:53:08.671Z,5.90
2022-10-19T14:55:40.776Z,5.03
2022-10-19T14:58:14.909Z,4.93
2022-10-19T15:00:44.205Z,5.40
2022-10-19T15:03:21.236Z,4.40
2022-10-19T15:05:51.986Z,4.60
2022-10-19T15:08:25.631Z,4.40
2022-10-19T15:10:54.244Z,4.43
2022-10-19T15:13:28.196Z,4.17
2022-10-19T15:15:56.610Z,4.27
2022-10-19T15:18:47.483Z,4.23
2022-10-19T15:21:19.219Z,4.10
2022-10-19T15:23:48.824Z,4.47
2022-10-19T15:26:21.018Z,4.37
2022-10-19T15:28:50.974Z,3.93
2022-10-19T15:31:21.534Z,4.10
2022-10-19T15:33:52.072Z,5.57
2022-10-19T15:36:22.004Z,3.67
2022-10-19T15:39:11.476Z,4.87
2022-10-19T15:41:48.715Z,4.57
2022-10-19T15:44:34.137Z,3.80
2022-10-19T15:47:21.037Z,3.60
2022-10-19T15:50:00.666Z,3.73
2022-10-19T15:52:30.017Z,4.50
2022-10-19T15:54:59.831Z,3.90
2022-10-19T15:57:30.870Z,4.47
2022-10-19T16:00:02.161Z,4.17
2022-10-19T16:02:30.246Z,3.77
2022-10-19T16:04:58.621Z,4.07
2022-10-19T16:07:28.929Z,4.23
2022-10-19T16:09:57.497Z,3.90
2022-10-19T16:12:27.142Z,3.77
2022-10-19T16:14:55.663Z,3.63
2022-10-19T16:17:25.428Z,3.40
2022-10-19T16:19:53.725Z,3.67
2022-10-19T16:22:21.798Z,3.80
2022-10-19T16:24:50.181Z,4.40
2022-10-19T16:27:18.483Z,4.13
2022-10-19T16:29:46.785Z,3.93
2022-10-19T16:32:15.164Z,3.73
2022-10-19T16:34:44.524Z,3.87
2022-10-19T16:37:12.697Z,4.23
2022-10-19T16:39:40.994Z,3.80
2022-10-19T16:42:09.320Z,3.67
2022-10-19T16:44:37.652Z,4.10
2022-10-19T16:47:06.438Z,3.63
2022-10-19T16:49:34.872Z,5.27
2022-10-19T16:52:06.142Z,3.73
2022-10-19T16:54:34.197Z,4.27
2022-10-19T16:57:07.164Z,4.20
2022-10-19T16:59:37.511Z,4.17
2022-10-19T17:02:05.829Z,4.57
2022-10-19T17:04:34.100Z,4.13
2022-10-19T17:07:04.048Z,4.07
2022-10-19T17:09:49.828Z,3.53
2022-10-19T17:12:20.272Z,4.33
2022-10-19T17:14:48.550Z,4.93
2022-10-19T17:17:17.194Z,3.80
2022-10-19T17:19:45.486Z,3.87
2022-10-19T17:22:14.864Z,4.67
2022-10-19T17:24:42.912Z,3.67
2022-10-19T17:27:11.314Z,3.80
2022-10-19T17:29:39.628Z,3.57
2022-10-19T17:32:08.091Z,3.77
2022-10-19T17:34:36.394Z,3.90
2022-10-19T17:37:05.084Z,3.60
2022-10-19T17:39:34.481Z,3.97
2022-10-19T17:42:04.246Z,4.00
2022-10-19T17:44:32.561Z,3.80
2022-10-19T17:47:01.555Z,4.47
2022-10-19T17:49:30.423Z,4.47
2022-10-19T17:51:58.739Z,4.57
2022-10-19T17:54:26.971Z,4.80
2022-10-19T17:56:56.412Z,4.37
2022-10-19T17:59:35.003Z,4.50
2022-10-19T18:02:03.670Z,4.43
2022-10-19T18:04:31.907Z,4.43
2022-10-19T18:06:59.951Z,4.37
2022-10-19T18:09:27.951Z,4.47
2022-10-19T18:11:57.348Z,4.53
2022-10-19T18:14:25.737Z,3.93
2022-10-19T18:16:54.082Z,4.47
2022-10-19T18:19:22.126Z,4.40
2022-10-19T18:21:50.340Z,5.10
2022-10-19T18:24:21.337Z,5.60
2022-10-19T18:26:50.785Z,4.80
2022-10-19T18:29:22.246Z,4.37
2022-10-19T18:31:52.233Z,4.40
2022-10-19T18:34:22.187Z,4.47
2022-10-19T18:36:50.547Z,4.50
2022-10-19T18:39:18.880Z,4.17
2022-10-19T18:41:48.296Z,4.67
2022-10-19T18:44:16.614Z,4.97
2022-10-19T18:46:46.066Z,4.07
2022-10-19T18:49:14.498Z,4.97
2022-10-19T18:51:42.787Z,5.00
2022-10-19T18:54:12.300Z,4.27
2022-10-19T18:56:40.651Z,4.20
2022-10-19T18:59:08.993Z,4.70
2022-10-19T19:01:37.420Z,4.60
2022-10-19T19:04:10.915Z,5.57
2022-10-19T19:06:39.742Z,4.20
2022-10-19T19:09:14.471Z,4.53
2022-10-19T19:11:43.066Z,4.33
2022-10-19T19:14:14.008Z,4.47
2022-10-19T19:16:43.777Z,4.67
2022-10-19T19:19:14.752Z,4.50
2022-10-19T19:21:44.563Z,4.63
2022-10-19T19:24:14.579Z,4.90
2022-10-19T19:26:46.745Z,5.07
2022-10-19T19:29:15.144Z,4.77
2022-10-19T19:31:43.512Z,4.20
2022-10-19T19:34:12.977Z,5.00
2022-10-19T19:36:46.907Z,4.33
2022-10-19T19:39:15.718Z,4.50
2022-10-19T19:41:44.041Z,4.60
2022-10-19T19:44:12.415Z,4.90
2022-10-19T19:46:40.770Z,4.83
2022-10-19T19:49:09.093Z,4.63
2022-10-19T19:51:38.475Z,4.60
2022-10-19T19:54:06.809Z,5.00
2022-10-19T19:56:34.947Z,4.40
2022-10-19T19:59:04.441Z,4.63
2022-10-19T20:01:33.079Z,4.67
2022-10-19T20:06:38.961Z,4.60
2022-10-19T20:09:08.277Z,4.60
2022-10-19T20:11:41.865Z,4.90
2022-10-19T20:14:10.869Z,4.50
2022-10-19T20:16:39.230Z,4.00
2022-10-19T20:19:09.660Z,4.83
2022-10-19T20:21:39.877Z,4.33
2022-10-19T20:24:08.669Z,4.77
2022-10-19T20:26:37.143Z,4.43
2022-10-19T20:29:06.557Z,4.37
2022-10-19T20:31:39.460Z,4.60
2022-10-19T20:34:13.747Z,4.00
2022-10-19T20:36:43.697Z,3.93
2022-10-19T20:39:12.001Z,4.10
2022-10-19T20:41:40.292Z,3.80
2022-10-19T20:44:08.653Z,4.77
2022-10-19T20:46:37.786Z,4.53
2022-10-19T20:49:07.421Z,4.57
2022-10-19T20:51:37.824Z,3.97
2022-10-19T20:54:09.319Z,3.57
2022-10-19T20:56:38.955Z,4.07
2022-10-19T20:59:08.954Z,3.77
2022-10-19T21:01:38.586Z,3.87
2022-10-19T21:04:08.124Z,4.07
2022-10-19T21:06:39.801Z,4.30
2022-10-19T21:09:10.152Z,4.00
2022-10-19T21:11:40.151Z,3.83
2022-10-19T21:14:11.476Z,3.67
2022-10-19T21:16:39.981Z,3.70
2022-10-19T21:19:09.704Z,3.80
2022-10-19T21:21:39.359Z,4.57
2022-10-19T21:24:11.763Z,4.03
2022-10-19T21:26:40.710Z,4.50
2022-10-19T21:29:10.703Z,3.93
2022-10-19T21:31:39.884Z,3.60
2022-10-19T21:34:10.134Z,3.70
2022-10-19T21:36:38.491Z,3.87
2022-10-19T21:39:06.845Z,4.33
2022-10-19T21:41:36.231Z,4.20
2022-10-19T21:44:04.611Z,4.07
2022-10-19T21:46:33.155Z,3.83
2022-10-19T21:49:01.518Z,4.00
2022-10-19T21:51:35.998Z,3.87
2022-10-19T21:54:04.722Z,3.93
2022-10-19T21:56:33.052Z,4.00
2022-10-19T21:59:02.405Z,4.00
2022-10-19T22:01:37.212Z,4.00
2022-10-19T22:04:16.311Z,3.53
2022-10-19T22:06:44.797Z,3.53
2022-10-19T22:09:16.118Z,3.90
2022-10-19T22:11:44.626Z,3.67
2022-10-19T22:14:16.383Z,4.07
2022-10-19T22:16:44.862Z,3.53
2022-10-19T22:19:13.586Z,3.87
2022-10-19T22:21:42.154Z,3.37
2022-10-19T22:24:13.469Z,3.63
2022-10-19T22:26:43.660Z,3.60
2022-10-19T22:29:11.975Z,3.40
2022-10-19T22:31:41.683Z,3.40
2022-10-19T22:34:11.775Z,3.50
2022-10-19T22:36:40.309Z,3.53
2022-10-19T22:39:09.569Z,3.87
2022-10-19T22:41:37.844Z,3.37
2022-10-19T22:44:06.182Z,3.60
2022-10-19T22:46:34.439Z,3.10
2022-10-19T22:49:03.920Z,3.70
2022-10-19T22:51:32.273Z,3.50
2022-10-19T22:54:00.636Z,3.23
2022-10-19T22:56:29.132Z,2.93
2022-10-19T22:58:59.790Z,3.50
2022-10-19T23:01:28.257Z,3.10
2022-10-19T23:03:56.752Z,3.40
2022-10-19T23:06:26.644Z,3.20
2022-10-19T23:08:55.189Z,3.27
2022-10-19T23:11:24.118Z,2.93
2022-10-19T23:13:52.462Z,3.90
2022-10-19T23:16:20.763Z,3.63
2022-10-19T23:18:49.127Z,3.43
2022-10-19T23:21:17.600Z,3.57
2022-10-19T23:23:46.985Z,3.80
2022-10-19T23:26:16.738Z,3.83
2022-10-19T23:28:46.784Z,3.97
2022-10-19T23:31:17.065Z,3.70
2022-10-19T23:33:46.167Z,3.60
2022-10-19T23:36:16.054Z,3.77
2022-10-19T23:38:44.944Z,4.03
2022-10-19T23:41:15.003Z,3.90
2022-10-19T23:43:43.268Z,4.20
2022-10-19T23:46:11.648Z,3.93
2022-10-19T23:48:40.210Z,3.80
2022-10-19T23:51:10.249Z,4.17
2022-10-19T23:53:41.321Z,3.93
2022-10-19T23:56:11.907Z,3.60
2022-10-19T23:58:41.324Z,4.10
